LFJL 181530Z AUTO 03006KT 350V060 9999 SCT049 SCT100 26/14 Q1013 TEMPO 4000 SHRA FEW030CB BKN040

ElémentsDécodage
LFJL Station météo située sur l'aérodrome de METZ Nancy-Lorraine
181530Z émis le 18 du mois à 15h30 UTC
AUTO Bulletin édité par un automate
03006KT vent du 030°, 06 noeuds
350V060 vent de direction variable entre 350° et 060°
9999 visibilité horizontale supérieure à 10 Km
SCT049 nuages épars (3/8 à 4/8) à 4900 pieds
SCT100 nuages épars (3/8 à 4/8) à 10000 pieds
26/14 température 26°C, point de rosée 14°C
 soit une humidité relative de 48%
Q1013 la pression au niveau de la mer (QNH) est de 1013 hPa
TEMPO fluctuation temporaire prévue
4000 visibilité horizontale de 4000 mètres
SHRA averse(s) de pluie
FEW030CB nuages rares (1/8 à 2/8) à 3000 pieds
 présence de cumulonimbus
BKN040 nuages morcelés (5/8 à 7/8) à 4000 pieds